Long Island Mac Arthur Airport
KISP : now visible

Airfield :











YOU CAN JOIN US ON...

 
LOGIN :

Register | Disclaimer

   EN    FR    IT 

 









Legend :    VFR   Marginal VFR   IFR   Intensive IFR   Very Intensive IFR
Visi :
Ceiling :
>= 8 km
>= 3000ft
5 to 8 km
1000 to 3000 ft
1500m to 5 km
500 to 1000 ft
800 to 1500m
200 to 500 ft
< 800m
< 200 ft
Symbols :   Thunderstorms  Fog  Heavy snow  Heavy precipitations  Wind > 20 kt






- Airport Elevation : 99 ft
- IATA code : ISP


KISP - Long Island Mac Arthur

CURRENT METAR :
  • 151556Z 27014G25KT 10SM SCT050 BKN060 09/M02 A2975 RMK AO2 PK WND 27031/1541 SLP074 T00891017 $

EXPIRED METARs :
  • 151456Z 28019G26KT 10SM FEW043 BKN060 08/M01 A2973 RMK AO2 PK WND 25026/1443 SLP066 T00831006 51028 $
  • 151356Z 26012KT 10SM FEW035 BKN055 07/01 A2971 RMK AO2 SLP061 T00720006 $

TAF KISP
Valid from the 15 at 14:00 until the 16 at 12:00 UTC


151426Z 1514/1612 26018G26KT P6SM BKN045
FM152200 28018G26KT P6SM SCT045 SCT250
FM160200 29012G18KT P6SM FEW250
FM160400 29008KT P6SM SCT250
FM160800 29005KT P6SM BKN150



MET'MAP, your aeronautical weather chart ! - Copyright ORBIFLY December 2007 - Disclaimer

ORBIFLY MET'MAP TEAM :

Programming & Development : Alexandra Zaïnal
Concept & original design : Baudouin d'Aumeries
Assistance for programming : Marc-Olivier Méhu
Technical & hardware support : Manuel Goepfert

Contact : metmap@orbifly.com




SOURCES & CREDITS :

   NOAA       Earth
Advisory